sensor_id;sensor_type;location;lat;lon;timestamp;P1;durP1;ratioP1;P2;durP2;ratioP2
55053;SDS011;40954;45.668;18.980;2022-11-21T00:01:30;42.97;;;25.98;;
55053;SDS011;40954;45.668;18.980;2022-11-21T00:03:56;39.33;;;25.95;;
55053;SDS011;40954;45.668;18.980;2022-11-21T00:06:22;39.65;;;26.25;;
55053;SDS011;40954;45.668;18.980;2022-11-21T00:08:48;42.30;;;24.85;;
55053;SDS011;40954;45.668;18.980;2022-11-21T00:11:14;41.05;;;25.08;;
55053;SDS011;40954;45.668;18.980;2022-11-21T00:13:41;37.70;;;24.73;;
55053;SDS011;40954;45.668;18.980;2022-11-21T00:16:09;40.75;;;25.10;;
55053;SDS011;40954;45.668;18.980;2022-11-21T00:18:35;40.70;;;27.05;;
55053;SDS011;40954;45.668;18.980;2022-11-21T00:21:05;38.83;;;25.80;;
55053;SDS011;40954;45.668;18.980;2022-11-21T00:23:31;34.78;;;23.58;;
55053;SDS011;40954;45.668;18.980;2022-11-21T00:25:57;41.58;;;24.73;;
55053;SDS011;40954;45.668;18.980;2022-11-21T00:28:23;37.95;;;25.02;;
55053;SDS011;40954;45.668;18.980;2022-11-21T00:30:49;39.75;;;24.98;;
55053;SDS011;40954;45.668;18.980;2022-11-21T00:33:16;40.92;;;25.63;;
55053;SDS011;40954;45.668;18.980;2022-11-21T00:35:42;41.65;;;25.60;;
55053;SDS011;40954;45.668;18.980;2022-11-21T00:38:08;39.78;;;26.23;;
55053;SDS011;40954;45.668;18.980;2022-11-21T00:40:34;43.88;;;26.90;;
55053;SDS011;40954;45.668;18.980;2022-11-21T00:43:00;41.35;;;25.48;;
55053;SDS011;40954;45.668;18.980;2022-11-21T00:45:26;39.83;;;25.52;;
55053;SDS011;40954;45.668;18.980;2022-11-21T00:47:52;39.97;;;24.50;;
55053;SDS011;40954;45.668;18.980;2022-11-21T00:50:18;40.95;;;24.95;;
55053;SDS011;40954;45.668;18.980;2022-11-21T00:52:45;38.00;;;24.73;;
55053;SDS011;40954;45.668;18.980;2022-11-21T00:55:11;37.88;;;24.00;;
55053;SDS011;40954;45.668;18.980;2022-11-21T00:57:37;43.50;;;25.92;;
55053;SDS011;40954;45.668;18.980;2022-11-21T01:00:03;40.78;;;25.73;;
55053;SDS011;40954;45.668;18.980;2022-11-21T01:02:30;39.65;;;25.58;;
55053;SDS011;40954;45.668;18.980;2022-11-21T01:04:56;42.35;;;25.42;;
55053;SDS011;40954;45.668;18.980;2022-11-21T01:07:22;42.88;;;25.38;;
55053;SDS011;40954;45.668;18.980;2022-11-21T01:09:48;42.55;;;26.30;;
55053;SDS011;40954;45.668;18.980;2022-11-21T01:12:13;46.17;;;26.63;;
55053;SDS011;40954;45.668;18.980;2022-11-21T01:14:39;40.72;;;26.13;;
55053;SDS011;40954;45.668;18.980;2022-11-21T01:17:05;46.63;;;27.52;;
55053;SDS011;40954;45.668;18.980;2022-11-21T01:19:31;39.67;;;25.33;;
55053;SDS011;40954;45.668;18.980;2022-11-21T01:21:56;42.35;;;26.52;;
55053;SDS011;40954;45.668;18.980;2022-11-21T01:24:22;42.53;;;25.42;;
55053;SDS011;40954;45.668;18.980;2022-11-21T01:26:48;38.83;;;24.75;;
55053;SDS011;40954;45.668;18.980;2022-11-21T01:29:15;40.50;;;25.25;;
55053;SDS011;40954;45.668;18.980;2022-11-21T01:31:41;43.15;;;26.88;;
55053;SDS011;40954;45.668;18.980;2022-11-21T01:34:06;38.17;;;23.80;;
55053;SDS011;40954;45.668;18.980;2022-11-21T01:36:32;38.13;;;24.73;;
55053;SDS011;40954;45.668;18.980;2022-11-21T01:38:59;40.92;;;25.70;;
55053;SDS011;40954;45.668;18.980;2022-11-21T01:41:28;44.97;;;26.73;;
55053;SDS011;40954;45.668;18.980;2022-11-21T01:44:00;40.10;;;25.15;;
55053;SDS011;40954;45.668;18.980;2022-11-21T01:46:45;40.13;;;25.23;;
55053;SDS011;40954;45.668;18.980;2022-11-21T01:59:46;37.85;;;23.77;;
55053;SDS011;40954;45.668;18.980;2022-11-21T02:02:16;40.70;;;24.75;;
55053;SDS011;40954;45.668;18.980;2022-11-21T02:04:45;39.75;;;25.15;;
55053;SDS011;40954;45.668;18.980;2022-11-21T02:07:12;46.25;;;25.70;;
55053;SDS011;40954;45.668;18.980;2022-11-21T02:09:41;39.05;;;24.98;;
55053;SDS011;40954;45.668;18.980;2022-11-21T02:12:14;34.88;;;23.20;;
55053;SDS011;40954;45.668;18.980;2022-11-21T02:14:46;40.80;;;24.52;;
55053;SDS011;40954;45.668;18.980;2022-11-21T02:17:12;39.45;;;24.08;;
55053;SDS011;40954;45.668;18.980;2022-11-21T02:20:12;41.53;;;25.02;;
55053;SDS011;40954;45.668;18.980;2022-11-21T02:25:06;40.20;;;24.25;;
55053;SDS011;40954;45.668;18.980;2022-11-21T02:27:41;43.33;;;24.67;;
55053;SDS011;40954;45.668;18.980;2022-11-21T02:30:08;40.63;;;23.65;;
55053;SDS011;40954;45.668;18.980;2022-11-21T02:32:38;38.55;;;23.67;;
55053;SDS011;40954;45.668;18.980;2022-11-21T02:35:05;44.70;;;23.98;;
55053;SDS011;40954;45.668;18.980;2022-11-21T02:37:32;41.75;;;23.02;;
55053;SDS011;40954;45.668;18.980;2022-11-21T02:40:00;36.55;;;24.05;;
55053;SDS011;40954;45.668;18.980;2022-11-21T02:42:27;39.40;;;23.75;;
55053;SDS011;40954;45.668;18.980;2022-11-21T02:44:56;39.10;;;24.42;;
55053;SDS011;40954;45.668;18.980;2022-11-21T02:47:25;38.88;;;24.45;;
55053;SDS011;40954;45.668;18.980;2022-11-21T02:49:54;41.00;;;23.65;;
55053;SDS011;40954;45.668;18.980;2022-11-21T02:52:21;38.05;;;23.63;;
55053;SDS011;40954;45.668;18.980;2022-11-21T02:54:47;36.03;;;23.42;;
55053;SDS011;40954;45.668;18.980;2022-11-21T02:57:13;39.42;;;23.40;;
55053;SDS011;40954;45.668;18.980;2022-11-21T02:59:39;37.67;;;23.55;;
55053;SDS011;40954;45.668;18.980;2022-11-21T03:02:05;39.22;;;23.15;;
55053;SDS011;40954;45.668;18.980;2022-11-21T03:04:31;38.17;;;23.00;;
55053;SDS011;40954;45.668;18.980;2022-11-21T03:06:57;39.42;;;23.42;;
55053;SDS011;40954;45.668;18.980;2022-11-21T03:09:23;39.88;;;23.73;;
55053;SDS011;40954;45.668;18.980;2022-11-21T03:11:49;37.95;;;23.83;;
55053;SDS011;40954;45.668;18.980;2022-11-21T03:14:15;38.47;;;23.40;;
55053;SDS011;40954;45.668;18.980;2022-11-21T03:16:42;38.10;;;23.17;;
55053;SDS011;40954;45.668;18.980;2022-11-21T03:19:08;38.20;;;23.30;;
55053;SDS011;40954;45.668;18.980;2022-11-21T03:21:34;35.90;;;22.08;;
55053;SDS011;40954;45.668;18.980;2022-11-21T03:24:00;38.47;;;22.80;;
55053;SDS011;40954;45.668;18.980;2022-11-21T03:26:26;38.63;;;23.20;;
55053;SDS011;40954;45.668;18.980;2022-11-21T03:28:52;36.05;;;22.98;;
55053;SDS011;40954;45.668;18.980;2022-11-21T03:31:18;38.20;;;23.45;;
55053;SDS011;40954;45.668;18.980;2022-11-21T03:33:44;40.40;;;23.55;;
55053;SDS011;40954;45.668;18.980;2022-11-21T03:36:10;39.45;;;22.48;;
55053;SDS011;40954;45.668;18.980;2022-11-21T03:38:36;44.90;;;23.27;;
55053;SDS011;40954;45.668;18.980;2022-11-21T03:41:03;40.28;;;22.83;;
55053;SDS011;40954;45.668;18.980;2022-11-21T03:43:29;38.08;;;23.90;;
55053;SDS011;40954;45.668;18.980;2022-11-21T03:45:55;37.88;;;23.10;;
55053;SDS011;40954;45.668;18.980;2022-11-21T03:48:21;39.97;;;22.42;;
55053;SDS011;40954;45.668;18.980;2022-11-21T03:50:48;42.05;;;22.38;;
55053;SDS011;40954;45.668;18.980;2022-11-21T03:53:14;36.13;;;22.20;;
55053;SDS011;40954;45.668;18.980;2022-11-21T03:55:41;38.53;;;22.15;;
55053;SDS011;40954;45.668;18.980;2022-11-21T03:58:07;35.60;;;21.33;;
55053;SDS011;40954;45.668;18.980;2022-11-21T04:00:33;34.50;;;21.10;;
55053;SDS011;40954;45.668;18.980;2022-11-21T04:02:59;38.10;;;22.38;;
55053;SDS011;40954;45.668;18.980;2022-11-21T04:05:25;33.25;;;20.10;;
55053;SDS011;40954;45.668;18.980;2022-11-21T04:07:51;39.08;;;21.70;;
55053;SDS011;40954;45.668;18.980;2022-11-21T04:10:18;31.83;;;19.90;;
55053;SDS011;40954;45.668;18.980;2022-11-21T04:12:44;39.50;;;22.42;;
55053;SDS011;40954;45.668;18.980;2022-11-21T04:15:11;33.95;;;21.08;;
55053;SDS011;40954;45.668;18.980;2022-11-21T04:17:37;31.35;;;19.25;;
55053;SDS011;40954;45.668;18.980;2022-11-21T04:20:03;34.05;;;20.30;;
55053;SDS011;40954;45.668;18.980;2022-11-21T04:22:30;35.35;;;20.63;;
55053;SDS011;40954;45.668;18.980;2022-11-21T04:24:56;31.77;;;19.92;;
55053;SDS011;40954;45.668;18.980;2022-11-21T04:27:22;37.42;;;21.48;;
55053;SDS011;40954;45.668;18.980;2022-11-21T04:29:48;38.03;;;23.40;;
55053;SDS011;40954;45.668;18.980;2022-11-21T04:32:14;33.17;;;19.98;;
55053;SDS011;40954;45.668;18.980;2022-11-21T04:34:40;32.67;;;18.92;;
55053;SDS011;40954;45.668;18.980;2022-11-21T04:37:06;34.58;;;19.23;;
55053;SDS011;40954;45.668;18.980;2022-11-21T04:39:32;37.97;;;21.75;;
55053;SDS011;40954;45.668;18.980;2022-11-21T04:41:58;31.63;;;20.40;;
55053;SDS011;40954;45.668;18.980;2022-11-21T04:44:24;30.75;;;19.48;;
55053;SDS011;40954;45.668;18.980;2022-11-21T04:46:50;34.95;;;20.38;;
55053;SDS011;40954;45.668;18.980;2022-11-21T04:49:17;34.97;;;20.90;;
55053;SDS011;40954;45.668;18.980;2022-11-21T04:51:43;33.38;;;19.13;;
55053;SDS011;40954;45.668;18.980;2022-11-21T04:54:09;39.85;;;21.15;;
55053;SDS011;40954;45.668;18.980;2022-11-21T04:56:36;35.85;;;21.27;;
55053;SDS011;40954;45.668;18.980;2022-11-21T04:59:02;35.70;;;20.90;;
55053;SDS011;40954;45.668;18.980;2022-11-21T05:01:28;36.30;;;22.42;;
55053;SDS011;40954;45.668;18.980;2022-11-21T05:03:54;39.30;;;22.67;;
55053;SDS011;40954;45.668;18.980;2022-11-21T05:06:20;40.65;;;22.75;;
55053;SDS011;40954;45.668;18.980;2022-11-21T05:08:46;39.92;;;22.90;;
55053;SDS011;40954;45.668;18.980;2022-11-21T05:11:12;35.97;;;21.40;;
55053;SDS011;40954;45.668;18.980;2022-11-21T05:13:57;35.33;;;21.63;;
55053;SDS011;40954;45.668;18.980;2022-11-21T05:16:23;41.15;;;22.45;;
55053;SDS011;40954;45.668;18.980;2022-11-21T05:18:49;36.22;;;20.90;;
55053;SDS011;40954;45.668;18.980;2022-11-21T05:21:15;35.85;;;21.25;;
55053;SDS011;40954;45.668;18.980;2022-11-21T05:23:41;33.28;;;19.67;;
55053;SDS011;40954;45.668;18.980;2022-11-21T05:26:07;40.03;;;22.38;;
55053;SDS011;40954;45.668;18.980;2022-11-21T05:28:33;34.63;;;19.88;;
55053;SDS011;40954;45.668;18.980;2022-11-21T05:30:59;38.17;;;20.90;;
55053;SDS011;40954;45.668;18.980;2022-11-21T05:33:25;38.13;;;22.27;;
55053;SDS011;40954;45.668;18.980;2022-11-21T05:35:51;43.15;;;22.27;;
55053;SDS011;40954;45.668;18.980;2022-11-21T05:38:17;35.92;;;21.02;;
55053;SDS011;40954;45.668;18.980;2022-11-21T05:40:43;37.50;;;21.02;;
55053;SDS011;40954;45.668;18.980;2022-11-21T05:43:10;37.65;;;20.00;;
55053;SDS011;40954;45.668;18.980;2022-11-21T05:45:55;33.85;;;19.88;;
55053;SDS011;40954;45.668;18.980;2022-11-21T05:48:21;36.33;;;19.90;;
55053;SDS011;40954;45.668;18.980;2022-11-21T05:50:47;35.92;;;20.02;;
55053;SDS011;40954;45.668;18.980;2022-11-21T05:53:14;34.03;;;19.27;;
55053;SDS011;40954;45.668;18.980;2022-11-21T05:55:40;39.50;;;20.42;;
55053;SDS011;40954;45.668;18.980;2022-11-21T05:58:06;34.28;;;19.70;;
55053;SDS011;40954;45.668;18.980;2022-11-21T06:00:34;38.60;;;21.63;;
55053;SDS011;40954;45.668;18.980;2022-11-21T06:03:01;35.80;;;20.25;;
55053;SDS011;40954;45.668;18.980;2022-11-21T06:05:45;37.22;;;20.60;;
55053;SDS011;40954;45.668;18.980;2022-11-21T06:08:12;37.55;;;20.58;;
55053;SDS011;40954;45.668;18.980;2022-11-21T06:10:38;35.63;;;19.20;;
55053;SDS011;40954;45.668;18.980;2022-11-21T06:13:04;35.53;;;20.30;;
55053;SDS011;40954;45.668;18.980;2022-11-21T06:15:46;28.45;;;16.10;;
55053;SDS011;40954;45.668;18.980;2022-11-21T06:18:12;42.85;;;21.27;;
55053;SDS011;40954;45.668;18.980;2022-11-21T06:20:38;33.97;;;20.10;;
55053;SDS011;40954;45.668;18.980;2022-11-21T06:23:04;36.45;;;19.60;;
55053;SDS011;40954;45.668;18.980;2022-11-21T06:25:30;30.27;;;17.35;;
55053;SDS011;40954;45.668;18.980;2022-11-21T06:27:58;34.20;;;17.58;;
55053;SDS011;40954;45.668;18.980;2022-11-21T06:30:24;31.25;;;17.38;;
55053;SDS011;40954;45.668;18.980;2022-11-21T06:32:50;33.83;;;18.80;;
55053;SDS011;40954;45.668;18.980;2022-11-21T06:35:16;31.02;;;16.80;;
55053;SDS011;40954;45.668;18.980;2022-11-21T06:37:42;31.08;;;17.08;;
55053;SDS011;40954;45.668;18.980;2022-11-21T06:40:08;30.65;;;18.15;;
55053;SDS011;40954;45.668;18.980;2022-11-21T06:42:34;30.70;;;17.83;;
55053;SDS011;40954;45.668;18.980;2022-11-21T06:45:01;35.47;;;19.52;;
55053;SDS011;40954;45.668;18.980;2022-11-21T06:47:27;37.72;;;19.55;;
55053;SDS011;40954;45.668;18.980;2022-11-21T06:49:53;37.38;;;20.42;;
55053;SDS011;40954;45.668;18.980;2022-11-21T06:52:19;34.30;;;19.20;;
55053;SDS011;40954;45.668;18.980;2022-11-21T06:54:45;36.55;;;19.48;;
55053;SDS011;40954;45.668;18.980;2022-11-21T06:57:11;31.08;;;17.25;;
55053;SDS011;40954;45.668;18.980;2022-11-21T06:59:37;28.80;;;16.40;;
55053;SDS011;40954;45.668;18.980;2022-11-21T07:02:03;28.90;;;16.40;;
55053;SDS011;40954;45.668;18.980;2022-11-21T07:04:29;26.92;;;15.00;;
55053;SDS011;40954;45.668;18.980;2022-11-21T07:06:55;28.55;;;15.50;;
55053;SDS011;40954;45.668;18.980;2022-11-21T07:09:21;25.95;;;15.38;;
55053;SDS011;40954;45.668;18.980;2022-11-21T07:11:47;31.75;;;15.85;;
55053;SDS011;40954;45.668;18.980;2022-11-21T07:14:13;27.00;;;16.35;;
55053;SDS011;40954;45.668;18.980;2022-11-21T07:16:38;24.92;;;14.60;;
55053;SDS011;40954;45.668;18.980;2022-11-21T07:19:04;24.05;;;14.13;;
55053;SDS011;40954;45.668;18.980;2022-11-21T07:21:30;21.95;;;13.85;;
55053;SDS011;40954;45.668;18.980;2022-11-21T07:23:56;25.63;;;14.98;;
55053;SDS011;40954;45.668;18.980;2022-11-21T07:26:21;23.48;;;14.02;;
55053;SDS011;40954;45.668;18.980;2022-11-21T07:28:47;17.40;;;11.52;;
55053;SDS011;40954;45.668;18.980;2022-11-21T07:31:13;23.55;;;12.45;;
55053;SDS011;40954;45.668;18.980;2022-11-21T07:33:38;23.30;;;12.80;;
55053;SDS011;40954;45.668;18.980;2022-11-21T07:36:04;22.20;;;14.35;;
55053;SDS011;40954;45.668;18.980;2022-11-21T07:38:31;21.75;;;13.05;;
55053;SDS011;40954;45.668;18.980;2022-11-21T07:40:56;17.50;;;11.70;;
55053;SDS011;40954;45.668;18.980;2022-11-21T07:43:22;25.25;;;14.88;;
55053;SDS011;40954;45.668;18.980;2022-11-21T07:45:48;19.50;;;12.73;;
55053;SDS011;40954;45.668;18.980;2022-11-21T07:48:14;20.58;;;11.85;;
55053;SDS011;40954;45.668;18.980;2022-11-21T07:50:40;17.50;;;11.40;;
55053;SDS011;40954;45.668;18.980;2022-11-21T07:53:07;22.83;;;13.82;;
55053;SDS011;40954;45.668;18.980;2022-11-21T07:55:35;23.50;;;13.35;;
55053;SDS011;40954;45.668;18.980;2022-11-21T07:58:05;20.95;;;11.95;;
55053;SDS011;40954;45.668;18.980;2022-11-21T08:00:32;27.08;;;15.13;;
55053;SDS011;40954;45.668;18.980;2022-11-21T08:02:58;26.08;;;14.70;;
55053;SDS011;40954;45.668;18.980;2022-11-21T08:05:24;27.30;;;15.90;;
55053;SDS011;40954;45.668;18.980;2022-11-21T08:07:50;25.92;;;16.25;;
55053;SDS011;40954;45.668;18.980;2022-11-21T08:10:17;24.05;;;14.93;;
55053;SDS011;40954;45.668;18.980;2022-11-21T08:12:43;25.77;;;14.60;;
55053;SDS011;40954;45.668;18.980;2022-11-21T08:15:10;23.65;;;13.85;;
55053;SDS011;40954;45.668;18.980;2022-11-21T08:17:37;24.88;;;14.52;;
55053;SDS011;40954;45.668;18.980;2022-11-21T08:20:06;27.52;;;14.65;;
55053;SDS011;40954;45.668;18.980;2022-11-21T08:22:36;27.20;;;16.60;;
55053;SDS011;40954;45.668;18.980;2022-11-21T08:25:02;24.75;;;14.30;;
55053;SDS011;40954;45.668;18.980;2022-11-21T08:27:29;26.50;;;14.02;;
55053;SDS011;40954;45.668;18.980;2022-11-21T08:29:54;24.25;;;15.40;;
55053;SDS011;40954;45.668;18.980;2022-11-21T08:32:20;26.77;;;16.08;;
55053;SDS011;40954;45.668;18.980;2022-11-21T08:34:46;30.40;;;18.25;;
55053;SDS011;40954;45.668;18.980;2022-11-21T08:37:11;28.83;;;17.00;;
55053;SDS011;40954;45.668;18.980;2022-11-21T08:39:37;30.77;;;17.13;;
55053;SDS011;40954;45.668;18.980;2022-11-21T08:42:03;28.02;;;16.10;;
55053;SDS011;40954;45.668;18.980;2022-11-21T08:44:29;25.52;;;15.23;;
55053;SDS011;40954;45.668;18.980;2022-11-21T08:46:56;26.48;;;16.00;;
55053;SDS011;40954;45.668;18.980;2022-11-21T08:49:22;27.98;;;17.30;;
55053;SDS011;40954;45.668;18.980;2022-11-21T08:51:48;26.15;;;16.17;;
55053;SDS011;40954;45.668;18.980;2022-11-21T08:54:17;30.08;;;18.13;;
55053;SDS011;40954;45.668;18.980;2022-11-21T08:56:44;21.30;;;14.52;;
55053;SDS011;40954;45.668;18.980;2022-11-21T08:59:10;26.60;;;15.77;;
55053;SDS011;40954;45.668;18.980;2022-11-21T09:01:36;26.52;;;16.65;;
55053;SDS011;40954;45.668;18.980;2022-11-21T09:04:02;25.35;;;15.85;;
55053;SDS011;40954;45.668;18.980;2022-11-21T09:06:28;27.05;;;17.20;;
55053;SDS011;40954;45.668;18.980;2022-11-21T09:08:54;34.70;;;18.60;;
55053;SDS011;40954;45.668;18.980;2022-11-21T09:11:20;23.42;;;14.73;;
55053;SDS011;40954;45.668;18.980;2022-11-21T09:13:46;21.15;;;14.15;;
55053;SDS011;40954;45.668;18.980;2022-11-21T09:16:32;25.23;;;15.90;;
55053;SDS011;40954;45.668;18.980;2022-11-21T09:19:16;21.13;;;14.50;;
55053;SDS011;40954;45.668;18.980;2022-11-21T09:21:42;25.90;;;16.20;;
55053;SDS011;40954;45.668;18.980;2022-11-21T09:24:08;28.10;;;17.02;;
55053;SDS011;40954;45.668;18.980;2022-11-21T09:26:34;25.63;;;15.27;;
55053;SDS011;40954;45.668;18.980;2022-11-21T09:29:00;26.13;;;15.82;;
55053;SDS011;40954;45.668;18.980;2022-11-21T09:31:27;26.73;;;17.23;;
55053;SDS011;40954;45.668;18.980;2022-11-21T09:33:53;28.20;;;17.30;;
55053;SDS011;40954;45.668;18.980;2022-11-21T09:36:19;35.38;;;23.05;;
55053;SDS011;40954;45.668;18.980;2022-11-21T09:38:45;23.88;;;15.65;;
55053;SDS011;40954;45.668;18.980;2022-11-21T09:46:51;21.15;;;12.98;;
55053;SDS011;40954;45.668;18.980;2022-11-21T09:49:17;21.25;;;13.32;;
55053;SDS011;40954;45.668;18.980;2022-11-21T09:51:43;16.75;;;11.73;;
55053;SDS011;40954;45.668;18.980;2022-11-21T09:54:22;17.38;;;11.50;;
55053;SDS011;40954;45.668;18.980;2022-11-21T09:56:50;15.93;;;11.07;;
55053;SDS011;40954;45.668;18.980;2022-11-21T10:01:50;18.08;;;11.98;;
55053;SDS011;40954;45.668;18.980;2022-11-21T10:04:16;19.05;;;12.50;;
55053;SDS011;40954;45.668;18.980;2022-11-21T10:11:50;16.95;;;11.48;;
55053;SDS011;40954;45.668;18.980;2022-11-21T10:19:50;16.48;;;11.77;;
55053;SDS011;40954;45.668;18.980;2022-11-21T10:27:47;14.35;;;10.55;;
55053;SDS011;40954;45.668;18.980;2022-11-21T10:30:16;15.98;;;10.82;;
55053;SDS011;40954;45.668;18.980;2022-11-21T10:32:45;17.45;;;12.20;;
55053;SDS011;40954;45.668;18.980;2022-11-21T10:35:13;14.32;;;10.90;;
55053;SDS011;40954;45.668;18.980;2022-11-21T10:37:47;15.70;;;10.82;;
55053;SDS011;40954;45.668;18.980;2022-11-21T10:45:53;18.67;;;11.25;;
55053;SDS011;40954;45.668;18.980;2022-11-21T10:48:19;18.65;;;11.70;;
55053;SDS011;40954;45.668;18.980;2022-11-21T10:53:21;14.85;;;9.88;;
55053;SDS011;40954;45.668;18.980;2022-11-21T10:56:17;17.27;;;11.15;;
55053;SDS011;40954;45.668;18.980;2022-11-21T10:58:45;18.33;;;12.48;;
55053;SDS011;40954;45.668;18.980;2022-11-21T11:06:09;17.42;;;10.52;;
55053;SDS011;40954;45.668;18.980;2022-11-21T11:08:52;15.02;;;9.88;;
55053;SDS011;40954;45.668;18.980;2022-11-21T11:11:21;17.80;;;12.15;;
55053;SDS011;40954;45.668;18.980;2022-11-21T11:16:17;21.05;;;11.88;;
55053;SDS011;40954;45.668;18.980;2022-11-21T11:18:49;20.02;;;11.80;;
55053;SDS011;40954;45.668;18.980;2022-11-21T11:23:42;23.10;;;13.95;;
55053;SDS011;40954;45.668;18.980;2022-11-21T11:26:22;19.10;;;12.48;;
55053;SDS011;40954;45.668;18.980;2022-11-21T11:28:48;14.35;;;11.13;;
55053;SDS011;40954;45.668;18.980;2022-11-21T11:31:14;19.95;;;12.60;;
55053;SDS011;40954;45.668;18.980;2022-11-21T11:33:48;21.40;;;13.88;;
55053;SDS011;40954;45.668;18.980;2022-11-21T11:36:18;21.38;;;15.70;;
55053;SDS011;40954;45.668;18.980;2022-11-21T11:38:51;24.60;;;18.13;;
55053;SDS011;40954;45.668;18.980;2022-11-21T11:44:16;20.45;;;14.65;;
55053;SDS011;40954;45.668;18.980;2022-11-21T11:47:04;19.40;;;11.02;;
55053;SDS011;40954;45.668;18.980;2022-11-21T11:49:54;19.08;;;12.05;;
55053;SDS011;40954;45.668;18.980;2022-11-21T11:55:06;14.00;;;9.55;;
55053;SDS011;40954;45.668;18.980;2022-11-21T11:57:33;17.30;;;11.38;;
55053;SDS011;40954;45.668;18.980;2022-11-21T12:00:06;17.67;;;11.68;;
55053;SDS011;40954;45.668;18.980;2022-11-21T12:02:59;15.30;;;11.27;;
55053;SDS011;40954;45.668;18.980;2022-11-21T12:05:26;19.35;;;13.00;;
55053;SDS011;40954;45.668;18.980;2022-11-21T12:07:58;19.15;;;14.13;;
55053;SDS011;40954;45.668;18.980;2022-11-21T12:10:42;13.43;;;10.30;;
55053;SDS011;40954;45.668;18.980;2022-11-21T12:13:28;13.75;;;10.30;;
55053;SDS011;40954;45.668;18.980;2022-11-21T12:15:56;14.15;;;10.27;;
55053;SDS011;40954;45.668;18.980;2022-11-21T12:18:32;12.40;;;9.70;;
55053;SDS011;40954;45.668;18.980;2022-11-21T12:28:39;12.02;;;9.45;;
55053;SDS011;40954;45.668;18.980;2022-11-21T12:31:25;10.07;;;8.13;;
55053;SDS011;40954;45.668;18.980;2022-11-21T12:34:01;11.77;;;8.55;;
55053;SDS011;40954;45.668;18.980;2022-11-21T12:36:31;12.10;;;8.98;;
55053;SDS011;40954;45.668;18.980;2022-11-21T12:39:12;13.45;;;10.02;;
55053;SDS011;40954;45.668;18.980;2022-11-21T12:41:59;11.25;;;8.50;;
55053;SDS011;40954;45.668;18.980;2022-11-21T12:49:49;17.85;;;12.40;;
55053;SDS011;40954;45.668;18.980;2022-11-21T12:52:39;13.30;;;10.65;;
55053;SDS011;40954;45.668;18.980;2022-11-21T12:55:37;14.55;;;10.57;;
55053;SDS011;40954;45.668;18.980;2022-11-21T12:58:25;16.70;;;10.57;;
55053;SDS011;40954;45.668;18.980;2022-11-21T13:06:10;13.32;;;10.63;;
55053;SDS011;40954;45.668;18.980;2022-11-21T13:08:37;11.82;;;9.73;;
55053;SDS011;40954;45.668;18.980;2022-11-21T13:11:09;8.95;;;7.63;;
55053;SDS011;40954;45.668;18.980;2022-11-21T13:21:47;8.48;;;7.47;;
55053;SDS011;40954;45.668;18.980;2022-11-21T13:32:44;9.25;;;7.53;;
55053;SDS011;40954;45.668;18.980;2022-11-21T13:45:39;13.65;;;9.57;;
55053;SDS011;40954;45.668;18.980;2022-11-21T13:53:40;14.07;;;10.15;;
55053;SDS011;40954;45.668;18.980;2022-11-21T13:56:09;16.83;;;11.77;;
55053;SDS011;40954;45.668;18.980;2022-11-21T14:06:33;13.75;;;10.45;;
55053;SDS011;40954;45.668;18.980;2022-11-21T14:11:48;14.40;;;11.00;;
55053;SDS011;40954;45.668;18.980;2022-11-21T14:16:57;10.18;;;9.00;;
55053;SDS011;40954;45.668;18.980;2022-11-21T14:19:27;14.52;;;9.50;;
55053;SDS011;40954;45.668;18.980;2022-11-21T14:21:55;11.23;;;8.18;;
55053;SDS011;40954;45.668;18.980;2022-11-21T14:24:21;9.50;;;7.07;;
55053;SDS011;40954;45.668;18.980;2022-11-21T14:26:48;11.02;;;8.27;;
55053;SDS011;40954;45.668;18.980;2022-11-21T14:31:59;12.98;;;9.85;;
55053;SDS011;40954;45.668;18.980;2022-11-21T14:34:29;10.32;;;8.75;;
55053;SDS011;40954;45.668;18.980;2022-11-21T14:36:59;14.40;;;10.13;;
55053;SDS011;40954;45.668;18.980;2022-11-21T14:39:27;14.77;;;10.15;;
55053;SDS011;40954;45.668;18.980;2022-11-21T14:41:54;12.38;;;10.05;;
55053;SDS011;40954;45.668;18.980;2022-11-21T14:44:21;12.18;;;9.07;;
55053;SDS011;40954;45.668;18.980;2022-11-21T14:46:47;22.10;;;14.80;;
55053;SDS011;40954;45.668;18.980;2022-11-21T14:49:16;15.50;;;12.23;;
55053;SDS011;40954;45.668;18.980;2022-11-21T14:54:18;24.02;;;17.33;;
55053;SDS011;40954;45.668;18.980;2022-11-21T14:56:45;20.08;;;14.75;;
55053;SDS011;40954;45.668;18.980;2022-11-21T14:59:15;26.33;;;17.77;;
55053;SDS011;40954;45.668;18.980;2022-11-21T15:01:42;40.97;;;28.50;;
55053;SDS011;40954;45.668;18.980;2022-11-21T15:04:21;45.38;;;33.53;;
55053;SDS011;40954;45.668;18.980;2022-11-21T15:06:50;45.95;;;33.15;;
55053;SDS011;40954;45.668;18.980;2022-11-21T15:09:17;52.60;;;34.22;;
55053;SDS011;40954;45.668;18.980;2022-11-21T15:14:27;40.90;;;30.10;;
55053;SDS011;40954;45.668;18.980;2022-11-21T15:16:54;27.38;;;18.55;;
55053;SDS011;40954;45.668;18.980;2022-11-21T15:19:22;33.55;;;18.42;;
55053;SDS011;40954;45.668;18.980;2022-11-21T15:21:54;31.35;;;18.67;;
55053;SDS011;40954;45.668;18.980;2022-11-21T15:26:53;43.13;;;24.95;;
55053;SDS011;40954;45.668;18.980;2022-11-21T15:29:20;41.03;;;26.48;;
55053;SDS011;40954;45.668;18.980;2022-11-21T15:32:05;41.05;;;27.58;;
55053;SDS011;40954;45.668;18.980;2022-11-21T15:34:32;65.15;;;37.75;;
55053;SDS011;40954;45.668;18.980;2022-11-21T15:37:04;55.00;;;31.33;;
55053;SDS011;40954;45.668;18.980;2022-11-21T15:39:32;83.57;;;44.70;;
55053;SDS011;40954;45.668;18.980;2022-11-21T15:45:00;83.60;;;46.58;;
55053;SDS011;40954;45.668;18.980;2022-11-21T15:47:26;69.78;;;40.70;;
55053;SDS011;40954;45.668;18.980;2022-11-21T15:49:53;68.97;;;45.08;;
55053;SDS011;40954;45.668;18.980;2022-11-21T15:52:19;60.53;;;40.15;;
55053;SDS011;40954;45.668;18.980;2022-11-21T15:54:45;37.88;;;24.92;;
55053;SDS011;40954;45.668;18.980;2022-11-21T15:57:12;38.47;;;26.52;;
55053;SDS011;40954;45.668;18.980;2022-11-21T15:59:39;31.30;;;22.63;;
55053;SDS011;40954;45.668;18.980;2022-11-21T16:02:05;28.30;;;20.05;;
55053;SDS011;40954;45.668;18.980;2022-11-21T16:04:31;32.25;;;22.05;;
55053;SDS011;40954;45.668;18.980;2022-11-21T16:06:57;35.80;;;25.85;;
55053;SDS011;40954;45.668;18.980;2022-11-21T16:09:24;40.97;;;26.88;;
55053;SDS011;40954;45.668;18.980;2022-11-21T16:11:50;39.70;;;24.02;;
55053;SDS011;40954;45.668;18.980;2022-11-21T16:14:15;49.63;;;29.30;;
55053;SDS011;40954;45.668;18.980;2022-11-21T16:16:42;57.75;;;36.25;;
55053;SDS011;40954;45.668;18.980;2022-11-21T16:19:08;65.20;;;36.92;;
55053;SDS011;40954;45.668;18.980;2022-11-21T16:21:35;67.25;;;39.88;;
55053;SDS011;40954;45.668;18.980;2022-11-21T16:24:01;93.00;;;47.97;;
55053;SDS011;40954;45.668;18.980;2022-11-21T16:26:27;77.90;;;43.63;;
55053;SDS011;40954;45.668;18.980;2022-11-21T16:28:53;79.10;;;47.10;;
55053;SDS011;40954;45.668;18.980;2022-11-21T16:31:20;83.28;;;49.13;;
55053;SDS011;40954;45.668;18.980;2022-11-21T16:33:47;76.50;;;47.08;;
55053;SDS011;40954;45.668;18.980;2022-11-21T16:36:17;87.35;;;54.17;;